sensor_id;sensor_type;location;lat;lon;timestamp;temperature;humidity
67529;DHT22;54366;51.980;5.856;2023-04-09T00:00:18;11.60;71.80
67529;DHT22;54366;51.980;5.856;2023-04-09T00:02:51;11.50;72.00
67529;DHT22;54366;51.980;5.856;2023-04-09T00:05:17;11.50;71.80
67529;DHT22;54366;51.980;5.856;2023-04-09T00:07:50;11.50;71.90
67529;DHT22;54366;51.980;5.856;2023-04-09T00:10:23;11.50;71.90
67529;DHT22;54366;51.980;5.856;2023-04-09T00:12:56;11.50;71.90
67529;DHT22;54366;51.980;5.856;2023-04-09T00:15:29;11.50;71.90
67529;DHT22;54366;51.980;5.856;2023-04-09T00:18:02;11.50;71.90
67529;DHT22;54366;51.980;5.856;2023-04-09T00:20:35;11.50;71.90
67529;DHT22;54366;51.980;5.856;2023-04-09T00:23:08;11.50;72.30
67529;DHT22;54366;51.980;5.856;2023-04-09T00:25:41;11.50;72.10
67529;DHT22;54366;51.980;5.856;2023-04-09T00:28:14;11.50;72.20
67529;DHT22;54366;51.980;5.856;2023-04-09T00:30:47;11.40;72.10
67529;DHT22;54366;51.980;5.856;2023-04-09T00:33:20;11.50;72.30
67529;DHT22;54366;51.980;5.856;2023-04-09T00:35:53;11.40;72.10
67529;DHT22;54366;51.980;5.856;2023-04-09T00:38:26;11.40;72.00
67529;DHT22;54366;51.980;5.856;2023-04-09T00:40:59;11.50;72.00
67529;DHT22;54366;51.980;5.856;2023-04-09T00:43:32;11.50;72.30
67529;DHT22;54366;51.980;5.856;2023-04-09T00:45:59;11.50;72.10
67529;DHT22;54366;51.980;5.856;2023-04-09T00:48:38;11.50;72.20
67529;DHT22;54366;51.980;5.856;2023-04-09T00:51:12;11.50;72.20
67529;DHT22;54366;51.980;5.856;2023-04-09T00:53:38;11.40;72.10
67529;DHT22;54366;51.980;5.856;2023-04-09T00:56:12;11.50;72.20
67529;DHT22;54366;51.980;5.856;2023-04-09T00:58:40;11.40;72.30
67529;DHT22;54366;51.980;5.856;2023-04-09T01:01:13;11.50;72.30
67529;DHT22;54366;51.980;5.856;2023-04-09T01:03:46;11.50;72.20
67529;DHT22;54366;51.980;5.856;2023-04-09T01:10:40;11.50;72.30
67529;DHT22;54366;51.980;5.856;2023-04-09T01:13:15;11.50;72.50
67529;DHT22;54366;51.980;5.856;2023-04-09T01:15:55;11.50;72.50
67529;DHT22;54366;51.980;5.856;2023-04-09T01:18:49;11.40;72.50
67529;DHT22;54366;51.980;5.856;2023-04-09T01:21:31;11.40;72.50
67529;DHT22;54366;51.980;5.856;2023-04-09T01:27:04;11.40;72.50
67529;DHT22;54366;51.980;5.856;2023-04-09T01:29:54;11.30;72.70
67529;DHT22;54366;51.980;5.856;2023-04-09T01:32:29;11.40;72.60
67529;DHT22;54366;51.980;5.856;2023-04-09T01:35:06;11.30;72.80
67529;DHT22;54366;51.980;5.856;2023-04-09T01:37:40;11.30;72.60
67529;DHT22;54366;51.980;5.856;2023-04-09T01:40:14;11.30;72.60
67529;DHT22;54366;51.980;5.856;2023-04-09T01:42:48;11.30;72.80
67529;DHT22;54366;51.980;5.856;2023-04-09T01:45:16;11.40;72.80
67529;DHT22;54366;51.980;5.856;2023-04-09T01:47:50;11.30;72.80
67529;DHT22;54366;51.980;5.856;2023-04-09T01:50:24;11.30;72.80
67529;DHT22;54366;51.980;5.856;2023-04-09T01:53:04;11.30;72.80
67529;DHT22;54366;51.980;5.856;2023-04-09T01:55:37;11.30;73.00
67529;DHT22;54366;51.980;5.856;2023-04-09T01:58:10;11.30;73.10
67529;DHT22;54366;51.980;5.856;2023-04-09T02:00:46;11.30;73.00
67529;DHT22;54366;51.980;5.856;2023-04-09T02:03:24;11.30;73.10
67529;DHT22;54366;51.980;5.856;2023-04-09T02:06:15;11.30;73.30
67529;DHT22;54366;51.980;5.856;2023-04-09T02:08:50;11.30;73.40
67529;DHT22;54366;51.980;5.856;2023-04-09T02:11:25;11.30;73.30
67529;DHT22;54366;51.980;5.856;2023-04-09T02:13:53;11.30;73.30
67529;DHT22;54366;51.980;5.856;2023-04-09T02:16:27;11.20;73.30
67529;DHT22;54366;51.980;5.856;2023-04-09T02:19:01;11.30;73.40
67529;DHT22;54366;51.980;5.856;2023-04-09T02:21:28;11.20;73.40
67529;DHT22;54366;51.980;5.856;2023-04-09T02:24:01;11.20;73.40
67529;DHT22;54366;51.980;5.856;2023-04-09T02:26:27;11.20;73.60
67529;DHT22;54366;51.980;5.856;2023-04-09T02:29:00;11.30;73.70
67529;DHT22;54366;51.980;5.856;2023-04-09T02:31:33;11.30;73.70
67529;DHT22;54366;51.980;5.856;2023-04-09T02:34:06;11.20;73.70
67529;DHT22;54366;51.980;5.856;2023-04-09T02:36:32;11.20;73.40
67529;DHT22;54366;51.980;5.856;2023-04-09T02:39:05;11.20;73.30
67529;DHT22;54366;51.980;5.856;2023-04-09T02:41:31;11.20;73.20
67529;DHT22;54366;51.980;5.856;2023-04-09T02:44:04;11.20;73.30
67529;DHT22;54366;51.980;5.856;2023-04-09T02:46:38;11.20;73.30
67529;DHT22;54366;51.980;5.856;2023-04-09T02:49:17;11.20;73.60
67529;DHT22;54366;51.980;5.856;2023-04-09T02:51:50;11.20;73.60
67529;DHT22;54366;51.980;5.856;2023-04-09T02:54:23;11.20;73.60
67529;DHT22;54366;51.980;5.856;2023-04-09T02:56:56;11.20;73.70
67529;DHT22;54366;51.980;5.856;2023-04-09T02:59:29;11.20;73.50
67529;DHT22;54366;51.980;5.856;2023-04-09T03:02:02;11.20;73.40
67529;DHT22;54366;51.980;5.856;2023-04-09T03:04:35;11.20;73.30
67529;DHT22;54366;51.980;5.856;2023-04-09T03:07:08;11.20;73.10
67529;DHT22;54366;51.980;5.856;2023-04-09T03:09:34;11.20;73.00
67529;DHT22;54366;51.980;5.856;2023-04-09T03:12:07;11.10;72.90
67529;DHT22;54366;51.980;5.856;2023-04-09T03:14:40;11.20;72.90
67529;DHT22;54366;51.980;5.856;2023-04-09T03:17:13;11.10;72.80
67529;DHT22;54366;51.980;5.856;2023-04-09T03:19:39;11.10;72.90
67529;DHT22;54366;51.980;5.856;2023-04-09T03:22:14;11.20;73.10
67529;DHT22;54366;51.980;5.856;2023-04-09T03:24:40;11.20;73.10
67529;DHT22;54366;51.980;5.856;2023-04-09T03:27:13;11.10;73.10
67529;DHT22;54366;51.980;5.856;2023-04-09T03:29:54;11.10;73.20
67529;DHT22;54366;51.980;5.856;2023-04-09T03:32:35;11.10;73.30
67529;DHT22;54366;51.980;5.856;2023-04-09T03:35:11;11.10;73.50
67529;DHT22;54366;51.980;5.856;2023-04-09T03:37:45;11.10;73.60
67529;DHT22;54366;51.980;5.856;2023-04-09T03:40:16;11.10;73.70
67529;DHT22;54366;51.980;5.856;2023-04-09T03:42:49;11.10;73.60
67529;DHT22;54366;51.980;5.856;2023-04-09T03:45:22;11.10;73.30
67529;DHT22;54366;51.980;5.856;2023-04-09T03:48:06;11.10;72.90
67529;DHT22;54366;51.980;5.856;2023-04-09T03:50:40;11.10;72.70
67529;DHT22;54366;51.980;5.856;2023-04-09T03:53:17;11.00;72.70
67529;DHT22;54366;51.980;5.856;2023-04-09T03:55:50;11.00;72.90
67529;DHT22;54366;51.980;5.856;2023-04-09T03:58:25;11.00;72.90
67529;DHT22;54366;51.980;5.856;2023-04-09T04:00:58;11.00;73.20
67529;DHT22;54366;51.980;5.856;2023-04-09T04:03:37;11.00;73.40
67529;DHT22;54366;51.980;5.856;2023-04-09T04:06:15;11.00;73.50
67529;DHT22;54366;51.980;5.856;2023-04-09T04:08:59;10.90;73.70
67529;DHT22;54366;51.980;5.856;2023-04-09T04:11:40;11.00;73.90
67529;DHT22;54366;51.980;5.856;2023-04-09T04:14:14;10.90;73.70
67529;DHT22;54366;51.980;5.856;2023-04-09T04:16:53;10.90;73.70
67529;DHT22;54366;51.980;5.856;2023-04-09T04:19:29;10.90;73.80
67529;DHT22;54366;51.980;5.856;2023-04-09T04:22:02;10.90;73.70
67529;DHT22;54366;51.980;5.856;2023-04-09T04:24:31;10.90;73.90
67529;DHT22;54366;51.980;5.856;2023-04-09T04:27:04;10.90;73.90
67529;DHT22;54366;51.980;5.856;2023-04-09T04:29:38;10.90;73.80
67529;DHT22;54366;51.980;5.856;2023-04-09T04:32:17;10.80;73.40
67529;DHT22;54366;51.980;5.856;2023-04-09T04:34:51;10.80;73.50
67529;DHT22;54366;51.980;5.856;2023-04-09T04:37:25;10.80;73.50
67529;DHT22;54366;51.980;5.856;2023-04-09T04:40:01;10.80;73.40
67529;DHT22;54366;51.980;5.856;2023-04-09T04:42:38;10.80;73.40
67529;DHT22;54366;51.980;5.856;2023-04-09T04:45:14;10.70;73.30
67529;DHT22;54366;51.980;5.856;2023-04-09T04:47:52;10.70;73.20
67529;DHT22;54366;51.980;5.856;2023-04-09T04:50:25;10.60;72.90
67529;DHT22;54366;51.980;5.856;2023-04-09T04:53:05;10.60;72.90
67529;DHT22;54366;51.980;5.856;2023-04-09T04:55:47;10.60;72.90
67529;DHT22;54366;51.980;5.856;2023-04-09T04:58:24;10.60;72.80
67529;DHT22;54366;51.980;5.856;2023-04-09T05:01:00;10.60;72.80
67529;DHT22;54366;51.980;5.856;2023-04-09T05:03:33;10.50;72.80
67529;DHT22;54366;51.980;5.856;2023-04-09T05:06:28;10.50;73.00
67529;DHT22;54366;51.980;5.856;2023-04-09T05:09:05;10.50;73.10
67529;DHT22;54366;51.980;5.856;2023-04-09T05:11:46;10.50;73.30
67529;DHT22;54366;51.980;5.856;2023-04-09T05:14:20;10.50;73.30
67529;DHT22;54366;51.980;5.856;2023-04-09T05:16:54;10.40;73.10
67529;DHT22;54366;51.980;5.856;2023-04-09T05:19:37;10.40;73.20
67529;DHT22;54366;51.980;5.856;2023-04-09T05:22:11;10.30;73.10
67529;DHT22;54366;51.980;5.856;2023-04-09T05:24:45;10.20;73.10
67529;DHT22;54366;51.980;5.856;2023-04-09T05:27:19;10.20;72.90
67529;DHT22;54366;51.980;5.856;2023-04-09T05:29:49;10.10;72.90
67529;DHT22;54366;51.980;5.856;2023-04-09T05:32:22;10.10;72.90
67529;DHT22;54366;51.980;5.856;2023-04-09T05:34:55;10.00;72.80
67529;DHT22;54366;51.980;5.856;2023-04-09T05:37:22;10.00;73.00
67529;DHT22;54366;51.980;5.856;2023-04-09T05:39:55;10.00;73.10
67529;DHT22;54366;51.980;5.856;2023-04-09T05:42:30;10.00;73.10
67529;DHT22;54366;51.980;5.856;2023-04-09T05:45:08;9.90;73.10
67529;DHT22;54366;51.980;5.856;2023-04-09T05:47:47;9.90;73.20
67529;DHT22;54366;51.980;5.856;2023-04-09T05:50:22;9.80;73.20
67529;DHT22;54366;51.980;5.856;2023-04-09T05:53:03;9.90;73.30
67529;DHT22;54366;51.980;5.856;2023-04-09T05:55:40;9.80;73.20
67529;DHT22;54366;51.980;5.856;2023-04-09T05:58:13;9.80;73.10
67529;DHT22;54366;51.980;5.856;2023-04-09T06:00:47;9.80;73.20
67529;DHT22;54366;51.980;5.856;2023-04-09T06:03:16;9.70;73.00
67529;DHT22;54366;51.980;5.856;2023-04-09T06:05:49;9.70;73.20
67529;DHT22;54366;51.980;5.856;2023-04-09T06:08:22;9.70;73.20
67529;DHT22;54366;51.980;5.856;2023-04-09T06:10:55;9.70;73.20
67529;DHT22;54366;51.980;5.856;2023-04-09T06:13:28;9.70;73.20
67529;DHT22;54366;51.980;5.856;2023-04-09T06:15:54;9.70;73.10
67529;DHT22;54366;51.980;5.856;2023-04-09T06:18:27;9.70;73.10
67529;DHT22;54366;51.980;5.856;2023-04-09T06:21:04;9.80;73.00
67529;DHT22;54366;51.980;5.856;2023-04-09T06:23:37;9.70;72.80
67529;DHT22;54366;51.980;5.856;2023-04-09T06:26:10;9.70;72.70
67529;DHT22;54366;51.980;5.856;2023-04-09T06:28:43;9.70;72.80
67529;DHT22;54366;51.980;5.856;2023-04-09T06:31:16;9.70;72.60
67529;DHT22;54366;51.980;5.856;2023-04-09T06:33:49;9.80;72.60
67529;DHT22;54366;51.980;5.856;2023-04-09T06:36:22;9.70;72.50
67529;DHT22;54366;51.980;5.856;2023-04-09T06:38:55;9.80;72.30
67529;DHT22;54366;51.980;5.856;2023-04-09T06:41:28;9.80;72.40
67529;DHT22;54366;51.980;5.856;2023-04-09T06:44:09;9.80;72.40
67529;DHT22;54366;51.980;5.856;2023-04-09T06:46:42;9.80;72.20
67529;DHT22;54366;51.980;5.856;2023-04-09T06:49:08;9.80;72.40
67529;DHT22;54366;51.980;5.856;2023-04-09T06:51:42;9.80;72.30
67529;DHT22;54366;51.980;5.856;2023-04-09T06:54:15;9.90;72.20
67529;DHT22;54366;51.980;5.856;2023-04-09T06:56:41;10.00;72.20
67529;DHT22;54366;51.980;5.856;2023-04-09T06:59:14;10.00;72.20
67529;DHT22;54366;51.980;5.856;2023-04-09T07:01:48;10.20;71.70
67529;DHT22;54366;51.980;5.856;2023-04-09T07:04:21;10.20;71.60
67529;DHT22;54366;51.980;5.856;2023-04-09T07:06:54;10.20;71.50
67529;DHT22;54366;51.980;5.856;2023-04-09T07:09:21;10.30;71.50
67529;DHT22;54366;51.980;5.856;2023-04-09T07:11:54;10.40;71.30
67529;DHT22;54366;51.980;5.856;2023-04-09T07:14:20;10.50;71.00
67529;DHT22;54366;51.980;5.856;2023-04-09T07:16:53;10.50;70.80
67529;DHT22;54366;51.980;5.856;2023-04-09T07:19:26;10.60;70.70
67529;DHT22;54366;51.980;5.856;2023-04-09T07:21:59;10.70;71.00
67529;DHT22;54366;51.980;5.856;2023-04-09T07:24:32;10.90;70.40
67529;DHT22;54366;51.980;5.856;2023-04-09T07:27:05;10.90;70.20
67529;DHT22;54366;51.980;5.856;2023-04-09T07:29:38;11.00;69.50
67529;DHT22;54366;51.980;5.856;2023-04-09T07:32:11;11.00;69.50
67529;DHT22;54366;51.980;5.856;2023-04-09T07:34:44;11.10;70.30
67529;DHT22;54366;51.980;5.856;2023-04-09T07:37:10;11.20;69.50
67529;DHT22;54366;51.980;5.856;2023-04-09T07:39:44;11.30;68.70
67529;DHT22;54366;51.980;5.856;2023-04-09T07:42:17;11.40;68.90
67529;DHT22;54366;51.980;5.856;2023-04-09T07:44:50;11.50;69.10
67529;DHT22;54366;51.980;5.856;2023-04-09T07:47:16;11.70;68.20
67529;DHT22;54366;51.980;5.856;2023-04-09T07:49:55;11.70;68.00
67529;DHT22;54366;51.980;5.856;2023-04-09T07:52:28;11.80;67.80
67529;DHT22;54366;51.980;5.856;2023-04-09T07:55:01;11.90;68.10
67529;DHT22;54366;51.980;5.856;2023-04-09T07:57:30;12.10;67.80
67529;DHT22;54366;51.980;5.856;2023-04-09T08:00:04;12.20;67.30
67529;DHT22;54366;51.980;5.856;2023-04-09T08:02:39;12.30;66.70
67529;DHT22;54366;51.980;5.856;2023-04-09T08:05:12;12.40;66.80
67529;DHT22;54366;51.980;5.856;2023-04-09T08:07:45;12.50;66.40
67529;DHT22;54366;51.980;5.856;2023-04-09T08:10:18;12.60;65.60
67529;DHT22;54366;51.980;5.856;2023-04-09T08:12:51;12.60;65.50
67529;DHT22;54366;51.980;5.856;2023-04-09T08:15:24;12.70;65.60
67529;DHT22;54366;51.980;5.856;2023-04-09T08:17:57;12.90;64.50
67529;DHT22;54366;51.980;5.856;2023-04-09T08:20:30;12.90;64.00
67529;DHT22;54366;51.980;5.856;2023-04-09T08:23:04;13.10;64.30
67529;DHT22;54366;51.980;5.856;2023-04-09T08:25:30;13.20;63.20
67529;DHT22;54366;51.980;5.856;2023-04-09T08:28:03;13.30;63.10
67529;DHT22;54366;51.980;5.856;2023-04-09T08:30:37;13.40;62.90
67529;DHT22;54366;51.980;5.856;2023-04-09T08:33:03;13.50;62.40
67529;DHT22;54366;51.980;5.856;2023-04-09T08:35:37;13.70;61.90
67529;DHT22;54366;51.980;5.856;2023-04-09T08:38:12;13.80;60.80
67529;DHT22;54366;51.980;5.856;2023-04-09T08:40:45;13.80;60.30
67529;DHT22;54366;51.980;5.856;2023-04-09T08:43:18;13.90;59.60
67529;DHT22;54366;51.980;5.856;2023-04-09T08:45:53;14.00;60.30
67529;DHT22;54366;51.980;5.856;2023-04-09T08:48:29;14.10;59.90
67529;DHT22;54366;51.980;5.856;2023-04-09T08:51:02;14.30;59.30
67529;DHT22;54366;51.980;5.856;2023-04-09T08:53:49;14.40;58.70
67529;DHT22;54366;51.980;5.856;2023-04-09T08:56:25;14.60;58.50
67529;DHT22;54366;51.980;5.856;2023-04-09T08:58:58;14.70;56.80
67529;DHT22;54366;51.980;5.856;2023-04-09T09:01:31;14.80;57.40
67529;DHT22;54366;51.980;5.856;2023-04-09T09:04:06;14.90;56.50
67529;DHT22;54366;51.980;5.856;2023-04-09T09:06:40;14.90;55.80
67529;DHT22;54366;51.980;5.856;2023-04-09T09:09:10;15.00;55.90
67529;DHT22;54366;51.980;5.856;2023-04-09T09:11:47;15.10;55.50
67529;DHT22;54366;51.980;5.856;2023-04-09T09:14:22;15.20;55.20
67529;DHT22;54366;51.980;5.856;2023-04-09T09:17:08;15.20;55.10
67529;DHT22;54366;51.980;5.856;2023-04-09T09:19:41;15.30;54.10
67529;DHT22;54366;51.980;5.856;2023-04-09T09:22:14;15.40;54.20
67529;DHT22;54366;51.980;5.856;2023-04-09T09:24:48;15.50;53.90
67529;DHT22;54366;51.980;5.856;2023-04-09T09:27:33;15.60;53.40
67529;DHT22;54366;51.980;5.856;2023-04-09T09:30:10;15.70;52.20
67529;DHT22;54366;51.980;5.856;2023-04-09T09:33:11;15.90;52.80
67529;DHT22;54366;51.980;5.856;2023-04-09T09:35:48;16.00;51.80
67529;DHT22;54366;51.980;5.856;2023-04-09T09:38:22;16.10;51.70
67529;DHT22;54366;51.980;5.856;2023-04-09T09:40:55;16.10;51.80
67529;DHT22;54366;51.980;5.856;2023-04-09T09:43:39;16.30;52.40
67529;DHT22;54366;51.980;5.856;2023-04-09T09:46:14;16.40;50.60
67529;DHT22;54366;51.980;5.856;2023-04-09T09:48:53;16.60;51.50
67529;DHT22;54366;51.980;5.856;2023-04-09T09:51:26;16.80;50.70
67529;DHT22;54366;51.980;5.856;2023-04-09T09:54:07;16.90;50.00
67529;DHT22;54366;51.980;5.856;2023-04-09T09:56:44;17.00;50.00
67529;DHT22;54366;51.980;5.856;2023-04-09T09:59:22;17.00;49.30
67529;DHT22;54366;51.980;5.856;2023-04-09T10:02:04;17.10;50.00
67529;DHT22;54366;51.980;5.856;2023-04-09T10:04:37;17.30;48.90
67529;DHT22;54366;51.980;5.856;2023-04-09T10:07:05;17.40;49.50
67529;DHT22;54366;51.980;5.856;2023-04-09T10:09:41;17.40;47.90
67529;DHT22;54366;51.980;5.856;2023-04-09T10:12:18;17.50;48.20
67529;DHT22;54366;51.980;5.856;2023-04-09T10:14:54;17.50;48.60
67529;DHT22;54366;51.980;5.856;2023-04-09T10:17:21;17.70;48.40
67529;DHT22;54366;51.980;5.856;2023-04-09T10:20:03;17.80;47.50
67529;DHT22;54366;51.980;5.856;2023-04-09T10:22:37;17.70;47.00
67529;DHT22;54366;51.980;5.856;2023-04-09T10:25:10;17.90;47.70
67529;DHT22;54366;51.980;5.856;2023-04-09T10:27:43;17.90;46.60
67529;DHT22;54366;51.980;5.856;2023-04-09T10:30:34;18.00;46.60
67529;DHT22;54366;51.980;5.856;2023-04-09T10:33:15;18.20;44.80
67529;DHT22;54366;51.980;5.856;2023-04-09T10:35:48;18.20;44.60
67529;DHT22;54366;51.980;5.856;2023-04-09T10:38:53;18.20;44.10
67529;DHT22;54366;51.980;5.856;2023-04-09T10:41:28;18.30;42.50
67529;DHT22;54366;51.980;5.856;2023-04-09T10:43:56;18.10;43.10
67529;DHT22;54366;51.980;5.856;2023-04-09T10:46:33;18.10;44.60
67529;DHT22;54366;51.980;5.856;2023-04-09T10:49:21;18.20;44.40
67529;DHT22;54366;51.980;5.856;2023-04-09T10:52:03;18.30;42.50
67529;DHT22;54366;51.980;5.856;2023-04-09T10:54:43;18.40;43.10
67529;DHT22;54366;51.980;5.856;2023-04-09T10:57:19;18.50;42.60
67529;DHT22;54366;51.980;5.856;2023-04-09T10:59:51;18.70;43.30
67529;DHT22;54366;51.980;5.856;2023-04-09T11:02:47;18.80;43.80
67529;DHT22;54366;51.980;5.856;2023-04-09T11:05:33;18.90;42.80
67529;DHT22;54366;51.980;5.856;2023-04-09T11:08:08;19.00;42.40
67529;DHT22;54366;51.980;5.856;2023-04-09T11:10:35;19.20;42.30
67529;DHT22;54366;51.980;5.856;2023-04-09T11:13:15;19.30;41.00
67529;DHT22;54366;51.980;5.856;2023-04-09T11:15:48;19.30;39.50
67529;DHT22;54366;51.980;5.856;2023-04-09T11:18:25;19.30;39.20
67529;DHT22;54366;51.980;5.856;2023-04-09T11:21:00;19.40;38.40
67529;DHT22;54366;51.980;5.856;2023-04-09T11:23:34;19.40;37.60
67529;DHT22;54366;51.980;5.856;2023-04-09T11:26:00;19.40;38.50
67529;DHT22;54366;51.980;5.856;2023-04-09T11:28:34;19.40;38.00
67529;DHT22;54366;51.980;5.856;2023-04-09T11:31:04;19.50;39.40
67529;DHT22;54366;51.980;5.856;2023-04-09T11:33:37;19.60;38.50
67529;DHT22;54366;51.980;5.856;2023-04-09T11:36:10;19.70;37.70
67529;DHT22;54366;51.980;5.856;2023-04-09T11:38:43;19.80;39.00
67529;DHT22;54366;51.980;5.856;2023-04-09T11:41:16;19.90;39.10
67529;DHT22;54366;51.980;5.856;2023-04-09T11:43:50;20.00;36.80
67529;DHT22;54366;51.980;5.856;2023-04-09T11:46:23;20.10;36.60
67529;DHT22;54366;51.980;5.856;2023-04-09T11:49:04;20.20;34.70
67529;DHT22;54366;51.980;5.856;2023-04-09T11:51:37;20.20;35.90
67529;DHT22;54366;51.980;5.856;2023-04-09T11:54:11;20.20;33.70
67529;DHT22;54366;51.980;5.856;2023-04-09T11:56:43;20.00;35.00
67529;DHT22;54366;51.980;5.856;2023-04-09T11:59:13;20.10;35.40
67529;DHT22;54366;51.980;5.856;2023-04-09T12:01:50;20.10;34.90
67529;DHT22;54366;51.980;5.856;2023-04-09T12:04:23;20.20;35.20
67529;DHT22;54366;51.980;5.856;2023-04-09T12:06:56;20.10;35.40
67529;DHT22;54366;51.980;5.856;2023-04-09T12:09:24;20.20;35.60
67529;DHT22;54366;51.980;5.856;2023-04-09T12:11:58;20.30;35.10
67529;DHT22;54366;51.980;5.856;2023-04-09T12:14:31;20.30;34.80
67529;DHT22;54366;51.980;5.856;2023-04-09T12:17:07;20.40;35.00
67529;DHT22;54366;51.980;5.856;2023-04-09T12:19:40;20.50;34.50
67529;DHT22;54366;51.980;5.856;2023-04-09T12:22:06;20.60;35.20
67529;DHT22;54366;51.980;5.856;2023-04-09T12:24:39;20.60;35.60
67529;DHT22;54366;51.980;5.856;2023-04-09T12:27:12;20.60;35.70
67529;DHT22;54366;51.980;5.856;2023-04-09T12:29:45;20.70;35.70
67529;DHT22;54366;51.980;5.856;2023-04-09T12:32:11;20.60;35.40
67529;DHT22;54366;51.980;5.856;2023-04-09T12:34:44;20.40;35.10
67529;DHT22;54366;51.980;5.856;2023-04-09T12:37:19;20.20;34.70
67529;DHT22;54366;51.980;5.856;2023-04-09T12:39:52;20.00;36.00
67529;DHT22;54366;51.980;5.856;2023-04-09T12:42:18;20.10;36.70
67529;DHT22;54366;51.980;5.856;2023-04-09T12:44:51;20.10;37.10
67529;DHT22;54366;51.980;5.856;2023-04-09T12:47:24;20.10;36.90
67529;DHT22;54366;51.980;5.856;2023-04-09T12:50:04;20.10;37.00
67529;DHT22;54366;51.980;5.856;2023-04-09T12:52:44;20.00;36.20
67529;DHT22;54366;51.980;5.856;2023-04-09T12:55:17;20.00;37.30
67529;DHT22;54366;51.980;5.856;2023-04-09T12:57:44;20.00;38.00
67529;DHT22;54366;51.980;5.856;2023-04-09T13:00:18;20.00;38.70
67529;DHT22;54366;51.980;5.856;2023-04-09T13:02:51;19.90;38.60
67529;DHT22;54366;51.980;5.856;2023-04-09T13:05:17;20.00;39.00
67529;DHT22;54366;51.980;5.856;2023-04-09T13:07:50;20.10;38.80
67529;DHT22;54366;51.980;5.856;2023-04-09T13:10:24;20.10;38.10
67529;DHT22;54366;51.980;5.856;2023-04-09T13:12:50;20.10;38.50
67529;DHT22;54366;51.980;5.856;2023-04-09T13:15:24;20.10;38.20
67529;DHT22;54366;51.980;5.856;2023-04-09T13:17:50;20.00;38.10
67529;DHT22;54366;51.980;5.856;2023-04-09T13:20:23;19.90;38.50
67529;DHT22;54366;51.980;5.856;2023-04-09T13:22:49;19.80;38.80
67529;DHT22;54366;51.980;5.856;2023-04-09T13:25:22;19.70;38.00
67529;DHT22;54366;51.980;5.856;2023-04-09T13:27:48;19.50;38.30
67529;DHT22;54366;51.980;5.856;2023-04-09T13:30:21;19.30;38.70
67529;DHT22;54366;51.980;5.856;2023-04-09T13:32:54;19.30;39.90
67529;DHT22;54366;51.980;5.856;2023-04-09T13:35:20;19.30;39.80
67529;DHT22;54366;51.980;5.856;2023-04-09T13:37:53;19.30;39.30
67529;DHT22;54366;51.980;5.856;2023-04-09T13:40:19;19.30;40.00
67529;DHT22;54366;51.980;5.856;2023-04-09T13:42:52;19.30;39.70
67529;DHT22;54366;51.980;5.856;2023-04-09T13:45:25;19.20;39.70
67529;DHT22;54366;51.980;5.856;2023-04-09T13:47:58;19.20;39.80
67529;DHT22;54366;51.980;5.856;2023-04-09T13:50:37;19.10;39.70
67529;DHT22;54366;51.980;5.856;2023-04-09T13:53:18;19.10;40.20
67529;DHT22;54366;51.980;5.856;2023-04-09T13:55:44;19.00;40.50
67529;DHT22;54366;51.980;5.856;2023-04-09T13:58:18;18.90;40.30
67529;DHT22;54366;51.980;5.856;2023-04-09T14:00:47;18.80;40.10
67529;DHT22;54366;51.980;5.856;2023-04-09T14:03:20;18.80;40.50
67529;DHT22;54366;51.980;5.856;2023-04-09T14:05:53;18.80;41.40
67529;DHT22;54366;51.980;5.856;2023-04-09T14:08:19;18.70;39.10
67529;DHT22;54366;51.980;5.856;2023-04-09T14:10:53;18.60;40.20
67529;DHT22;54366;51.980;5.856;2023-04-09T14:13:26;18.60;39.90
67529;DHT22;54366;51.980;5.856;2023-04-09T14:15:59;18.50;39.70
67529;DHT22;54366;51.980;5.856;2023-04-09T14:18:25;18.60;40.30
67529;DHT22;54366;51.980;5.856;2023-04-09T14:20:58;18.50;40.00
67529;DHT22;54366;51.980;5.856;2023-04-09T14:23:31;18.60;41.00
67529;DHT22;54366;51.980;5.856;2023-04-09T14:26:05;18.50;40.40
67529;DHT22;54366;51.980;5.856;2023-04-09T14:28:38;18.50;40.10
67529;DHT22;54366;51.980;5.856;2023-04-09T14:31:11;18.50;40.50
67529;DHT22;54366;51.980;5.856;2023-04-09T14:33:45;18.40;41.30
67529;DHT22;54366;51.980;5.856;2023-04-09T14:36:12;18.50;40.80
67529;DHT22;54366;51.980;5.856;2023-04-09T14:38:45;18.40;41.00
67529;DHT22;54366;51.980;5.856;2023-04-09T14:41:13;18.50;40.90
67529;DHT22;54366;51.980;5.856;2023-04-09T14:43:46;18.60;41.20
67529;DHT22;54366;51.980;5.856;2023-04-09T14:46:19;18.60;40.30
67529;DHT22;54366;51.980;5.856;2023-04-09T14:48:47;18.60;40.00
67529;DHT22;54366;51.980;5.856;2023-04-09T14:51:25;18.60;40.30
67529;DHT22;54366;51.980;5.856;2023-04-09T14:53:59;18.70;39.90
67529;DHT22;54366;51.980;5.856;2023-04-09T14:56:33;18.60;39.70
67529;DHT22;54366;51.980;5.856;2023-04-09T14:59:06;18.60;40.60
67529;DHT22;54366;51.980;5.856;2023-04-09T15:01:32;18.70;40.10
67529;DHT22;54366;51.980;5.856;2023-04-09T15:04:05;18.60;40.70
67529;DHT22;54366;51.980;5.856;2023-04-09T15:06:31;18.60;40.70
67529;DHT22;54366;51.980;5.856;2023-04-09T15:09:04;18.60;40.40
67529;DHT22;54366;51.980;5.856;2023-04-09T15:11:30;18.50;40.10
67529;DHT22;54366;51.980;5.856;2023-04-09T15:14:03;18.40;40.10
67529;DHT22;54366;51.980;5.856;2023-04-09T15:16:36;18.30;40.10
67529;DHT22;54366;51.980;5.856;2023-04-09T15:19:09;18.30;40.90
67529;DHT22;54366;51.980;5.856;2023-04-09T15:21:42;18.30;41.30
67529;DHT22;54366;51.980;5.856;2023-04-09T15:24:15;18.40;40.80
67529;DHT22;54366;51.980;5.856;2023-04-09T15:26:41;18.30;40.60
67529;DHT22;54366;51.980;5.856;2023-04-09T15:29:14;18.40;41.60
67529;DHT22;54366;51.980;5.856;2023-04-09T15:31:47;18.40;41.30
67529;DHT22;54366;51.980;5.856;2023-04-09T15:34:21;18.30;41.30
67529;DHT22;54366;51.980;5.856;2023-04-09T15:36:54;18.20;41.20
67529;DHT22;54366;51.980;5.856;2023-04-09T15:39:27;18.20;40.80
67529;DHT22;54366;51.980;5.856;2023-04-09T15:41:54;18.20;40.40
67529;DHT22;54366;51.980;5.856;2023-04-09T15:44:30;18.10;40.80
67529;DHT22;54366;51.980;5.856;2023-04-09T15:46:56;18.10;41.00
67529;DHT22;54366;51.980;5.856;2023-04-09T15:49:29;18.00;41.10
67529;DHT22;54366;51.980;5.856;2023-04-09T15:52:15;18.00;40.70
67529;DHT22;54366;51.980;5.856;2023-04-09T15:54:48;17.90;40.50
67529;DHT22;54366;51.980;5.856;2023-04-09T15:57:14;17.90;40.60
67529;DHT22;54366;51.980;5.856;2023-04-09T15:59:47;17.90;40.10
67529;DHT22;54366;51.980;5.856;2023-04-09T16:02:20;17.90;40.80
67529;DHT22;54366;51.980;5.856;2023-04-09T16:04:46;17.90;40.80
67529;DHT22;54366;51.980;5.856;2023-04-09T16:07:19;17.80;40.40
67529;DHT22;54366;51.980;5.856;2023-04-09T16:09:45;17.80;40.40
67529;DHT22;54366;51.980;5.856;2023-04-09T16:12:18;17.80;40.00
67529;DHT22;54366;51.980;5.856;2023-04-09T16:14:52;17.80;40.40
67529;DHT22;54366;51.980;5.856;2023-04-09T16:17:18;17.70;40.90
67529;DHT22;54366;51.980;5.856;2023-04-09T16:19:51;17.70;40.90